sensor_id;sensor_type;location;lat;lon;timestamp;pressure;altitude;pressure_sealevel;temperature;humidity
75668;BME280;64266;48.798;44.756;2023-05-24T00:03:12;101464.25;;;17.05;80.63
75668;BME280;64266;48.798;44.756;2023-05-24T00:08:17;101472.88;;;17.07;80.79
75668;BME280;64266;48.798;44.756;2023-05-24T00:13:20;101472.28;;;17.05;80.52
75668;BME280;64266;48.798;44.756;2023-05-24T00:18:24;101461.47;;;16.83;80.52
75668;BME280;64266;48.798;44.756;2023-05-24T00:23:27;101477.06;;;16.86;81.22
75668;BME280;64266;48.798;44.756;2023-05-24T00:28:31;101477.88;;;16.87;81.23
75668;BME280;64266;48.798;44.756;2023-05-24T00:33:34;101482.75;;;16.90;81.28
75668;BME280;64266;48.798;44.756;2023-05-24T00:38:37;101471.38;;;16.83;81.12
75668;BME280;64266;48.798;44.756;2023-05-24T00:43:40;101477.38;;;16.90;80.81
75668;BME280;64266;48.798;44.756;2023-05-24T00:48:47;101473.47;;;16.80;81.02
75668;BME280;64266;48.798;44.756;2023-05-24T00:53:51;101468.25;;;16.74;79.83
75668;BME280;64266;48.798;44.756;2023-05-24T00:58:54;101461.94;;;16.80;80.31
75668;BME280;64266;48.798;44.756;2023-05-24T01:03:57;101488.50;;;16.82;81.22
75668;BME280;64266;48.798;44.756;2023-05-24T01:20:03;101477.44;;;16.78;80.96
75668;BME280;64266;48.798;44.756;2023-05-24T01:30:44;101483.94;;;16.54;79.21
75668;BME280;64266;48.798;44.756;2023-05-24T01:35:47;101474.88;;;16.43;78.69
75668;BME280;64266;48.798;44.756;2023-05-24T01:40:56;101485.59;;;16.43;78.78
75668;BME280;64266;48.798;44.756;2023-05-24T01:46:12;101514.34;;;16.48;78.46
75668;BME280;64266;48.798;44.756;2023-05-24T01:51:22;101489.00;;;16.39;79.58
75668;BME280;64266;48.798;44.756;2023-05-24T01:56:26;101506.19;;;16.43;79.34
75668;BME280;64266;48.798;44.756;2023-05-24T02:01:30;101511.44;;;16.38;79.98
75668;BME280;64266;48.798;44.756;2023-05-24T02:06:34;101499.66;;;16.50;79.51
75668;BME280;64266;48.798;44.756;2023-05-24T02:11:37;101503.13;;;16.62;79.85
75668;BME280;64266;48.798;44.756;2023-05-24T02:16:39;101503.19;;;16.79;78.96
75668;BME280;64266;48.798;44.756;2023-05-24T02:21:44;101473.63;;;16.74;78.84
75668;BME280;64266;48.798;44.756;2023-05-24T02:26:47;101520.72;;;17.15;78.64
75668;BME280;64266;48.798;44.756;2023-05-24T02:31:50;101513.81;;;17.19;78.67
75668;BME280;64266;48.798;44.756;2023-05-24T02:36:58;101512.94;;;17.30;78.26
75668;BME280;64266;48.798;44.756;2023-05-24T02:42:00;101512.13;;;17.46;78.16
75668;BME280;64266;48.798;44.756;2023-05-24T02:47:03;101522.47;;;17.71;77.02
75668;BME280;64266;48.798;44.756;2023-05-24T02:52:07;101509.75;;;17.83;76.88
75668;BME280;64266;48.798;44.756;2023-05-24T02:57:10;101504.69;;;18.25;76.67
75668;BME280;64266;48.798;44.756;2023-05-24T03:02:17;101506.75;;;19.15;74.17
75668;BME280;64266;48.798;44.756;2023-05-24T03:07:21;101520.94;;;20.16;70.83
75668;BME280;64266;48.798;44.756;2023-05-24T03:12:24;101513.94;;;20.87;66.61
75668;BME280;64266;48.798;44.756;2023-05-24T03:17:27;101487.44;;;20.53;67.33
75668;BME280;64266;48.798;44.756;2023-05-24T03:22:30;101497.25;;;21.50;66.07
75668;BME280;64266;48.798;44.756;2023-05-24T03:27:34;101510.72;;;22.55;63.26
75668;BME280;64266;48.798;44.756;2023-05-24T03:32:37;101505.56;;;23.07;60.71
75668;BME280;64266;48.798;44.756;2023-05-24T03:37:40;101483.44;;;23.63;58.80
75668;BME280;64266;48.798;44.756;2023-05-24T03:42:44;101502.72;;;24.33;57.99
75668;BME280;64266;48.798;44.756;2023-05-24T03:47:47;101496.69;;;24.97;55.23
75668;BME280;64266;48.798;44.756;2023-05-24T03:52:50;101480.50;;;25.56;54.58
75668;BME280;64266;48.798;44.756;2023-05-24T03:57:54;101492.28;;;26.06;52.13
75668;BME280;64266;48.798;44.756;2023-05-24T04:02:56;101476.09;;;26.42;51.19
75668;BME280;64266;48.798;44.756;2023-05-24T04:08:02;101470.91;;;26.90;51.76
75668;BME280;64266;48.798;44.756;2023-05-24T04:13:05;101457.28;;;27.34;48.84
75668;BME280;64266;48.798;44.756;2023-05-24T04:18:11;101467.59;;;27.77;48.39
75668;BME280;64266;48.798;44.756;2023-05-24T04:23:14;101467.56;;;28.16;48.38
75668;BME280;64266;48.798;44.756;2023-05-24T04:28:17;101454.09;;;28.28;47.71
75668;BME280;64266;48.798;44.756;2023-05-24T04:33:23;101473.91;;;28.85;45.80
75668;BME280;64266;48.798;44.756;2023-05-24T04:38:28;101499.84;;;29.51;45.35
75668;BME280;64266;48.798;44.756;2023-05-24T04:43:37;101495.69;;;29.92;44.75
75668;BME280;64266;48.798;44.756;2023-05-24T04:48:40;101479.53;;;30.28;43.59
75668;BME280;64266;48.798;44.756;2023-05-24T04:53:43;101489.19;;;30.96;42.67
75668;BME280;64266;48.798;44.756;2023-05-24T04:58:46;101470.47;;;31.31;41.88
75668;BME280;64266;48.798;44.756;2023-05-24T05:03:49;101475.00;;;31.72;40.25
75668;BME280;64266;48.798;44.756;2023-05-24T05:08:52;101457.28;;;31.82;40.62
75668;BME280;64266;48.798;44.756;2023-05-24T05:13:55;101490.31;;;32.21;40.69
75668;BME280;64266;48.798;44.756;2023-05-24T05:19:01;101485.25;;;32.48;39.08
75668;BME280;64266;48.798;44.756;2023-05-24T05:24:06;101493.94;;;32.50;38.83
75668;BME280;64266;48.798;44.756;2023-05-24T05:29:09;101498.28;;;32.51;38.39
75668;BME280;64266;48.798;44.756;2023-05-24T05:34:12;101504.88;;;32.74;37.29
75668;BME280;64266;48.798;44.756;2023-05-24T05:39:16;101496.44;;;32.95;37.60
75668;BME280;64266;48.798;44.756;2023-05-24T05:44:19;101484.78;;;33.13;36.85
75668;BME280;64266;48.798;44.756;2023-05-24T05:49:22;101488.81;;;33.47;35.81
75668;BME280;64266;48.798;44.756;2023-05-24T05:54:25;101485.19;;;32.72;37.33
75668;BME280;64266;48.798;44.756;2023-05-24T05:59:30;101475.06;;;32.88;38.50
75668;BME280;64266;48.798;44.756;2023-05-24T06:04:37;101459.63;;;33.11;37.71
75668;BME280;64266;48.798;44.756;2023-05-24T06:09:40;101455.34;;;33.14;36.51
75668;BME280;64266;48.798;44.756;2023-05-24T06:14:43;101454.91;;;33.12;36.38
75668;BME280;64266;48.798;44.756;2023-05-24T06:19:46;101439.41;;;32.92;36.81
75668;BME280;64266;48.798;44.756;2023-05-24T06:24:48;101446.31;;;33.29;37.98
75668;BME280;64266;48.798;44.756;2023-05-24T06:29:51;101453.72;;;33.41;37.27
75668;BME280;64266;48.798;44.756;2023-05-24T06:34:54;101456.38;;;33.37;37.29
75668;BME280;64266;48.798;44.756;2023-05-24T06:39:58;101466.56;;;33.37;37.30
75668;BME280;64266;48.798;44.756;2023-05-24T06:45:01;101431.63;;;33.37;36.54
75668;BME280;64266;48.798;44.756;2023-05-24T06:50:06;101405.06;;;33.29;36.38
75668;BME280;64266;48.798;44.756;2023-05-24T06:55:11;101408.63;;;33.45;37.14
75668;BME280;64266;48.798;44.756;2023-05-24T07:00:15;101386.59;;;33.76;36.88
75668;BME280;64266;48.798;44.756;2023-05-24T07:05:19;101379.88;;;33.74;37.01
75668;BME280;64266;48.798;44.756;2023-05-24T07:10:22;101371.16;;;33.72;36.73
75668;BME280;64266;48.798;44.756;2023-05-24T07:15:26;101381.91;;;33.77;36.92
75668;BME280;64266;48.798;44.756;2023-05-24T07:20:28;101380.59;;;33.55;37.65
75668;BME280;64266;48.798;44.756;2023-05-24T07:25:32;101386.09;;;33.24;37.92
75668;BME280;64266;48.798;44.756;2023-05-24T07:30:38;101364.88;;;32.93;38.03
75668;BME280;64266;48.798;44.756;2023-05-24T07:35:40;101356.53;;;32.90;38.86
75668;BME280;64266;48.798;44.756;2023-05-24T07:40:44;101334.44;;;32.70;38.70
75668;BME280;64266;48.798;44.756;2023-05-24T07:45:48;101340.03;;;32.74;38.46
75668;BME280;64266;48.798;44.756;2023-05-24T07:50:52;101319.66;;;32.47;38.34
75668;BME280;64266;48.798;44.756;2023-05-24T07:55:57;101303.22;;;32.19;39.85
75668;BME280;64266;48.798;44.756;2023-05-24T08:01:00;101305.63;;;31.69;39.96
75668;BME280;64266;48.798;44.756;2023-05-24T08:06:04;101316.03;;;31.27;40.68
75668;BME280;64266;48.798;44.756;2023-05-24T08:11:08;101302.50;;;30.86;42.21
75668;BME280;64266;48.798;44.756;2023-05-24T08:16:12;101310.03;;;30.77;41.98
75668;BME280;64266;48.798;44.756;2023-05-24T08:21:15;101296.44;;;30.35;42.70
75668;BME280;64266;48.798;44.756;2023-05-24T08:26:21;101260.59;;;29.75;42.98
75668;BME280;64266;48.798;44.756;2023-05-24T08:31:26;101314.47;;;30.16;42.84
75668;BME280;64266;48.798;44.756;2023-05-24T08:36:31;101284.06;;;29.96;37.50
75668;BME280;64266;48.798;44.756;2023-05-24T08:42:01;101321.16;;;30.27;36.69
75668;BME280;64266;48.798;44.756;2023-05-24T08:47:14;101298.47;;;30.26;35.05
75668;BME280;64266;48.798;44.756;2023-05-24T08:52:20;101301.75;;;30.52;31.56
75668;BME280;64266;48.798;44.756;2023-05-24T08:57:26;101306.69;;;30.59;32.57
75668;BME280;64266;48.798;44.756;2023-05-24T09:02:32;101296.66;;;30.63;32.82
75668;BME280;64266;48.798;44.756;2023-05-24T09:07:37;101303.09;;;30.46;32.85
75668;BME280;64266;48.798;44.756;2023-05-24T09:12:46;101296.41;;;30.56;32.14
75668;BME280;64266;48.798;44.756;2023-05-24T09:17:51;101278.50;;;30.71;31.42
75668;BME280;64266;48.798;44.756;2023-05-24T09:22:54;101290.34;;;30.95;31.15
75668;BME280;64266;48.798;44.756;2023-05-24T09:28:05;101297.19;;;31.13;30.77
75668;BME280;64266;48.798;44.756;2023-05-24T09:33:08;101300.53;;;31.19;30.21
75668;BME280;64266;48.798;44.756;2023-05-24T09:38:17;101271.38;;;31.02;30.01
75668;BME280;64266;48.798;44.756;2023-05-24T09:43:20;101293.88;;;31.08;29.14
75668;BME280;64266;48.798;44.756;2023-05-24T09:48:28;101304.16;;;31.11;31.03
75668;BME280;64266;48.798;44.756;2023-05-24T09:53:34;101291.72;;;31.13;29.90
75668;BME280;64266;48.798;44.756;2023-05-24T09:58:46;101303.81;;;31.37;28.55
75668;BME280;64266;48.798;44.756;2023-05-24T10:03:54;101291.00;;;31.29;29.48
75668;BME280;64266;48.798;44.756;2023-05-24T10:09:01;101283.84;;;31.00;29.55
75668;BME280;64266;48.798;44.756;2023-05-24T10:14:08;101278.31;;;30.76;30.37
75668;BME280;64266;48.798;44.756;2023-05-24T10:19:11;101310.25;;;30.72;29.71
75668;BME280;64266;48.798;44.756;2023-05-24T10:24:17;101309.94;;;30.40;29.91
75668;BME280;64266;48.798;44.756;2023-05-24T10:29:40;101302.94;;;30.10;31.88
75668;BME280;64266;48.798;44.756;2023-05-24T10:34:49;101297.34;;;30.06;31.63
75668;BME280;64266;48.798;44.756;2023-05-24T10:39:53;101285.41;;;29.90;32.51
75668;BME280;64266;48.798;44.756;2023-05-24T10:44:56;101267.03;;;29.70;33.40
75668;BME280;64266;48.798;44.756;2023-05-24T10:50:18;101271.63;;;29.78;33.16
75668;BME280;64266;48.798;44.756;2023-05-24T10:55:21;101264.69;;;29.60;33.99
75668;BME280;64266;48.798;44.756;2023-05-24T11:00:24;101272.06;;;29.68;33.74
75668;BME280;64266;48.798;44.756;2023-05-24T11:05:53;101278.53;;;29.84;34.00
75668;BME280;64266;48.798;44.756;2023-05-24T11:11:06;101271.19;;;29.97;33.95
75668;BME280;64266;48.798;44.756;2023-05-24T11:16:35;101288.81;;;30.08;33.57
75668;BME280;64266;48.798;44.756;2023-05-24T11:21:42;101295.09;;;30.08;34.99
75668;BME280;64266;48.798;44.756;2023-05-24T11:26:49;101293.94;;;29.89;35.44
75668;BME280;64266;48.798;44.756;2023-05-24T11:31:53;101303.13;;;29.84;35.75
75668;BME280;64266;48.798;44.756;2023-05-24T11:37:01;101301.63;;;29.66;34.84
75668;BME280;64266;48.798;44.756;2023-05-24T11:42:06;101288.91;;;29.49;35.83
75668;BME280;64266;48.798;44.756;2023-05-24T11:47:11;101275.69;;;29.22;35.25
75668;BME280;64266;48.798;44.756;2023-05-24T11:52:15;101277.78;;;29.25;35.94
75668;BME280;64266;48.798;44.756;2023-05-24T11:57:22;101267.97;;;29.24;35.72
75668;BME280;64266;48.798;44.756;2023-05-24T12:02:29;101271.66;;;29.28;35.98
75668;BME280;64266;48.798;44.756;2023-05-24T12:07:33;101263.97;;;29.22;35.96
75668;BME280;64266;48.798;44.756;2023-05-24T12:12:42;101254.06;;;29.09;36.69
75668;BME280;64266;48.798;44.756;2023-05-24T12:17:48;101269.06;;;29.23;36.94
75668;BME280;64266;48.798;44.756;2023-05-24T12:23:00;101263.16;;;29.21;37.58
75668;BME280;64266;48.798;44.756;2023-05-24T12:28:07;101284.53;;;29.28;37.15
75668;BME280;64266;48.798;44.756;2023-05-24T12:33:10;101261.59;;;29.12;37.68
75668;BME280;64266;48.798;44.756;2023-05-24T12:38:14;101267.19;;;29.15;37.92
75668;BME280;64266;48.798;44.756;2023-05-24T12:43:21;101249.91;;;29.02;37.74
75668;BME280;64266;48.798;44.756;2023-05-24T12:48:24;101258.72;;;29.08;38.34
75668;BME280;64266;48.798;44.756;2023-05-24T12:53:46;101244.00;;;28.92;38.35
75668;BME280;64266;48.798;44.756;2023-05-24T12:58:49;101231.41;;;28.79;38.65
75668;BME280;64266;48.798;44.756;2023-05-24T13:03:52;101246.66;;;28.71;38.86
75668;BME280;64266;48.798;44.756;2023-05-24T13:08:55;101240.44;;;28.53;39.42
75668;BME280;64266;48.798;44.756;2023-05-24T13:13:59;101222.50;;;28.44;39.43
75668;BME280;64266;48.798;44.756;2023-05-24T13:19:01;101215.41;;;28.43;39.05
75668;BME280;64266;48.798;44.756;2023-05-24T13:24:05;101225.56;;;28.42;39.56
75668;BME280;64266;48.798;44.756;2023-05-24T13:29:09;101205.38;;;28.26;40.12
75668;BME280;64266;48.798;44.756;2023-05-24T13:34:15;101191.88;;;28.21;40.36
75668;BME280;64266;48.798;44.756;2023-05-24T13:39:20;101182.28;;;28.15;40.95
75668;BME280;64266;48.798;44.756;2023-05-24T13:44:24;101197.88;;;28.15;41.53
75668;BME280;64266;48.798;44.756;2023-05-24T13:49:30;101193.84;;;27.95;42.09
75668;BME280;64266;48.798;44.756;2023-05-24T13:54:32;101190.34;;;27.86;42.72
75668;BME280;64266;48.798;44.756;2023-05-24T13:59:35;101183.09;;;27.81;42.90
75668;BME280;64266;48.798;44.756;2023-05-24T14:04:38;101190.16;;;27.82;42.57
75668;BME280;64266;48.798;44.756;2023-05-24T14:09:41;101190.97;;;27.83;42.42
75668;BME280;64266;48.798;44.756;2023-05-24T14:14:43;101182.50;;;27.59;42.81
75668;BME280;64266;48.798;44.756;2023-05-24T14:19:50;101188.25;;;27.49;44.47
75668;BME280;64266;48.798;44.756;2023-05-24T14:24:53;101192.69;;;27.36;45.96
75668;BME280;64266;48.798;44.756;2023-05-24T14:29:56;101173.09;;;27.08;45.79
75668;BME280;64266;48.798;44.756;2023-05-24T14:34:59;101187.00;;;26.98;46.96
75668;BME280;64266;48.798;44.756;2023-05-24T14:40:05;101202.69;;;26.92;46.69
75668;BME280;64266;48.798;44.756;2023-05-24T14:45:08;101212.56;;;26.80;47.14
75668;BME280;64266;48.798;44.756;2023-05-24T14:50:11;101203.03;;;26.60;46.88
75668;BME280;64266;48.798;44.756;2023-05-24T14:55:14;101216.59;;;26.52;47.29
75668;BME280;64266;48.798;44.756;2023-05-24T15:00:17;101215.38;;;26.35;49.32
75668;BME280;64266;48.798;44.756;2023-05-24T15:05:24;101210.97;;;26.17;49.60
75668;BME280;64266;48.798;44.756;2023-05-24T15:10:27;101223.16;;;26.06;49.96
75668;BME280;64266;48.798;44.756;2023-05-24T15:15:30;101202.00;;;25.81;51.57
75668;BME280;64266;48.798;44.756;2023-05-24T15:20:33;101236.03;;;25.78;51.90
75668;BME280;64266;48.798;44.756;2023-05-24T15:25:37;101227.56;;;25.58;52.37
75668;BME280;64266;48.798;44.756;2023-05-24T15:30:40;101231.28;;;25.48;52.13
75668;BME280;64266;48.798;44.756;2023-05-24T15:35:48;101235.00;;;25.39;52.13
75668;BME280;64266;48.798;44.756;2023-05-24T15:40:50;101234.84;;;25.21;53.55
75668;BME280;64266;48.798;44.756;2023-05-24T15:45:54;101233.94;;;25.12;55.06
75668;BME280;64266;48.798;44.756;2023-05-24T15:50:57;101222.28;;;24.98;55.95
75668;BME280;64266;48.798;44.756;2023-05-24T15:56:20;101215.00;;;24.80;55.98
75668;BME280;64266;48.798;44.756;2023-05-24T16:01:23;101243.56;;;24.77;56.05
75668;BME280;64266;48.798;44.756;2023-05-24T16:06:27;101246.25;;;24.64;56.76
75668;BME280;64266;48.798;44.756;2023-05-24T16:11:30;101224.09;;;24.43;56.64
75668;BME280;64266;48.798;44.756;2023-05-24T16:16:32;101253.94;;;24.43;58.55
75668;BME280;64266;48.798;44.756;2023-05-24T16:21:35;101239.91;;;24.22;60.04
75668;BME280;64266;48.798;44.756;2023-05-24T16:26:38;101248.22;;;24.12;60.51
75668;BME280;64266;48.798;44.756;2023-05-24T16:31:40;101258.97;;;23.99;60.36
75668;BME280;64266;48.798;44.756;2023-05-24T16:36:43;101262.69;;;23.84;60.91
75668;BME280;64266;48.798;44.756;2023-05-24T16:41:48;101268.78;;;23.76;61.61
75668;BME280;64266;48.798;44.756;2023-05-24T16:46:51;101267.59;;;23.63;63.61
75668;BME280;64266;48.798;44.756;2023-05-24T16:51:53;101278.56;;;23.53;62.88
75668;BME280;64266;48.798;44.756;2023-05-24T16:56:56;101251.44;;;23.35;63.00
75668;BME280;64266;48.798;44.756;2023-05-24T17:01:59;101272.00;;;23.36;62.98
75668;BME280;64266;48.798;44.756;2023-05-24T17:07:02;101283.75;;;23.26;63.04
75668;BME280;64266;48.798;44.756;2023-05-24T17:12:05;101294.63;;;23.21;63.32
75668;BME280;64266;48.798;44.756;2023-05-24T17:17:08;101282.94;;;23.02;63.27
75668;BME280;64266;48.798;44.756;2023-05-24T17:22:12;101298.84;;;23.08;62.53
75668;BME280;64266;48.798;44.756;2023-05-24T17:27:15;101295.09;;;23.04;61.96
75668;BME280;64266;48.798;44.756;2023-05-24T17:32:23;101281.16;;;22.92;61.76
75668;BME280;64266;48.798;44.756;2023-05-24T17:37:25;101273.66;;;22.84;61.74
75668;BME280;64266;48.798;44.756;2023-05-24T17:42:28;101274.56;;;22.75;61.90
75668;BME280;64266;48.798;44.756;2023-05-24T17:47:30;101278.41;;;22.68;61.67
75668;BME280;64266;48.798;44.756;2023-05-24T17:52:33;101285.72;;;22.68;60.75
75668;BME280;64266;48.798;44.756;2023-05-24T17:57:35;101292.78;;;22.64;60.40
75668;BME280;64266;48.798;44.756;2023-05-24T18:02:38;101314.66;;;22.67;60.97
75668;BME280;64266;48.798;44.756;2023-05-24T18:07:40;101313.34;;;22.60;61.51
75668;BME280;64266;48.798;44.756;2023-05-24T18:12:43;101318.25;;;22.53;61.92
75668;BME280;64266;48.798;44.756;2023-05-24T18:17:45;101327.56;;;22.42;62.78
75668;BME280;64266;48.798;44.756;2023-05-24T18:22:48;101330.63;;;22.30;62.81
75668;BME280;64266;48.798;44.756;2023-05-24T18:27:51;101321.25;;;22.18;62.78
75668;BME280;64266;48.798;44.756;2023-05-24T18:32:54;101346.63;;;22.17;63.67
75668;BME280;64266;48.798;44.756;2023-05-24T18:38:09;101339.69;;;22.05;63.93
75668;BME280;64266;48.798;44.756;2023-05-24T18:43:13;101349.44;;;22.01;63.98
75668;BME280;64266;48.798;44.756;2023-05-24T18:48:15;101327.88;;;21.86;64.32
75668;BME280;64266;48.798;44.756;2023-05-24T18:53:18;101332.75;;;21.79;64.66
75668;BME280;64266;48.798;44.756;2023-05-24T18:58:20;101326.59;;;21.74;64.76
75668;BME280;64266;48.798;44.756;2023-05-24T19:03:23;101344.16;;;21.66;65.21
75668;BME280;64266;48.798;44.756;2023-05-24T19:08:26;101338.28;;;21.54;65.98
75668;BME280;64266;48.798;44.756;2023-05-24T19:13:28;101346.41;;;21.49;66.64
75668;BME280;64266;48.798;44.756;2023-05-24T19:18:30;101346.41;;;21.49;66.37
75668;BME280;64266;48.798;44.756;2023-05-24T19:23:33;101327.25;;;21.45;66.27
75668;BME280;64266;48.798;44.756;2023-05-24T19:28:36;101348.84;;;21.40;66.36
75668;BME280;64266;48.798;44.756;2023-05-24T19:33:41;101356.94;;;21.45;66.76
75668;BME280;64266;48.798;44.756;2023-05-24T19:39:01;101338.09;;;21.30;66.89
75668;BME280;64266;48.798;44.756;2023-05-24T19:44:04;101340.53;;;21.32;66.85
75668;BME280;64266;48.798;44.756;2023-05-24T19:49:06;101331.63;;;21.26;66.92
75668;BME280;64266;48.798;44.756;2023-05-24T19:54:09;101329.72;;;21.27;66.86
75668;BME280;64266;48.798;44.756;2023-05-24T19:59:12;101339.72;;;21.31;67.16
75668;BME280;64266;48.798;44.756;2023-05-24T20:04:14;101338.09;;;21.20;67.17
75668;BME280;64266;48.798;44.756;2023-05-24T20:09:16;101335.44;;;21.15;67.81
75668;BME280;64266;48.798;44.756;2023-05-24T20:14:19;101338.66;;;21.17;67.90
75668;BME280;64266;48.798;44.756;2023-05-24T20:19:22;101333.53;;;21.11;68.07
75668;BME280;64266;48.798;44.756;2023-05-24T20:24:26;101344.31;;;21.11;67.92
75668;BME280;64266;48.798;44.756;2023-05-24T20:29:29;101314.69;;;20.90;68.62
75668;BME280;64266;48.798;44.756;2023-05-24T20:34:32;101326.81;;;20.93;69.00
75668;BME280;64266;48.798;44.756;2023-05-24T20:39:37;101305.00;;;20.79;69.43
75668;BME280;64266;48.798;44.756;2023-05-24T20:44:40;101330.31;;;20.88;68.94
75668;BME280;64266;48.798;44.756;2023-05-24T20:49:42;101339.50;;;20.87;69.02
75668;BME280;64266;48.798;44.756;2023-05-24T20:54:45;101330.31;;;20.83;69.55
75668;BME280;64266;48.798;44.756;2023-05-24T20:59:48;101335.19;;;20.81;69.45
75668;BME280;64266;48.798;44.756;2023-05-24T21:04:50;101330.59;;;20.77;69.32
75668;BME280;64266;48.798;44.756;2023-05-24T21:09:54;101341.38;;;20.82;69.26
75668;BME280;64266;48.798;44.756;2023-05-24T21:14:57;101322.50;;;20.77;68.91
75668;BME280;64266;48.798;44.756;2023-05-24T21:20:00;101310.38;;;20.69;68.74
75668;BME280;64266;48.798;44.756;2023-05-24T21:25:05;101312.56;;;20.67;69.12
75668;BME280;64266;48.798;44.756;2023-05-24T21:30:09;101290.44;;;20.50;68.88
75668;BME280;64266;48.798;44.756;2023-05-24T21:35:12;101317.69;;;20.64;68.54
75668;BME280;64266;48.798;44.756;2023-05-24T21:40:15;101297.44;;;20.56;68.42
75668;BME280;64266;48.798;44.756;2023-05-24T21:45:19;101324.38;;;20.61;68.66
75668;BME280;64266;48.798;44.756;2023-05-24T21:50:22;101303.91;;;20.40;68.68
75668;BME280;64266;48.798;44.756;2023-05-24T21:55:27;101322.53;;;20.41;69.05
75668;BME280;64266;48.798;44.756;2023-05-24T22:00:30;101323.84;;;20.34;68.85
75668;BME280;64266;48.798;44.756;2023-05-24T22:05:32;101333.56;;;20.30;69.17
75668;BME280;64266;48.798;44.756;2023-05-24T22:10:35;101335.38;;;20.24;69.08
75668;BME280;64266;48.798;44.756;2023-05-24T22:15:37;101330.50;;;20.06;69.05
75668;BME280;64266;48.798;44.756;2023-05-24T22:20:40;101352.59;;;20.13;68.88
75668;BME280;64266;48.798;44.756;2023-05-24T22:25:42;101357.47;;;20.11;68.38
75668;BME280;64266;48.798;44.756;2023-05-24T22:30:46;101346.41;;;20.02;68.24
75668;BME280;64266;48.798;44.756;2023-05-24T22:35:49;101345.31;;;19.98;68.61
75668;BME280;64266;48.798;44.756;2023-05-24T22:40:52;101332.63;;;19.89;68.09
75668;BME280;64266;48.798;44.756;2023-05-24T22:45:55;101345.56;;;19.97;68.39
75668;BME280;64266;48.798;44.756;2023-05-24T22:50:59;101359.28;;;19.95;68.92
75668;BME280;64266;48.798;44.756;2023-05-24T22:56:02;101354.16;;;19.89;68.68
75668;BME280;64266;48.798;44.756;2023-05-24T23:01:05;101353.34;;;19.83;69.06
75668;BME280;64266;48.798;44.756;2023-05-24T23:06:09;101372.72;;;19.85;68.63
75668;BME280;64266;48.798;44.756;2023-05-24T23:11:13;101358.44;;;19.75;68.54
75668;BME280;64266;48.798;44.756;2023-05-24T23:16:18;101366.50;;;19.80;68.16
75668;BME280;64266;48.798;44.756;2023-05-24T23:21:21;101363.53;;;19.71;67.96
75668;BME280;64266;48.798;44.756;2023-05-24T23:26:26;101357.91;;;19.78;68.12
75668;BME280;64266;48.798;44.756;2023-05-24T23:31:29;101366.22;;;19.71;67.63
75668;BME280;64266;48.798;44.756;2023-05-24T23:36:32;101352.69;;;19.61;66.98
75668;BME280;64266;48.798;44.756;2023-05-24T23:41:34;101354.34;;;19.62;67.63
75668;BME280;64266;48.798;44.756;2023-05-24T23:46:38;101364.56;;;19.65;67.70
75668;BME280;64266;48.798;44.756;2023-05-24T23:51:42;101381.78;;;19.69;67.56
75668;BME280;64266;48.798;44.756;2023-05-24T23:56:46;101379.09;;;19.64;67.68
